createdAt,value
2023-04-28T00:00:02.663Z,66.42
2023-04-28T00:02:32.064Z,66.71
2023-04-28T00:05:00.117Z,66.02
2023-04-28T00:07:28.141Z,66.32
2023-04-28T00:09:57.092Z,66.87
2023-04-28T00:12:25.152Z,65.98
2023-04-28T00:14:53.053Z,66.34
2023-04-28T00:17:20.981Z,66.80
2023-04-28T00:19:51.480Z,66.82
2023-04-28T00:22:19.435Z,66.37
2023-04-28T00:24:47.401Z,66.32
2023-04-28T00:27:15.326Z,66.79
2023-04-28T00:29:43.248Z,67.08
2023-04-28T00:32:11.229Z,66.28
2023-04-28T00:34:39.202Z,66.74
2023-04-28T00:37:08.509Z,66.69
2023-04-28T00:39:36.857Z,66.70
2023-04-28T00:42:04.870Z,66.74
2023-04-28T00:44:32.804Z,66.95
2023-04-28T00:47:00.944Z,66.92
2023-04-28T00:49:28.856Z,67.05
2023-04-28T00:51:56.780Z,67.06
2023-04-28T00:54:26.069Z,67.16
2023-04-28T00:56:53.973Z,66.92
2023-04-28T00:59:21.863Z,67.13
2023-04-28T01:01:50.129Z,67.31
2023-04-28T01:04:19.123Z,67.19
2023-04-28T01:06:47.470Z,67.21
2023-04-28T01:09:15.478Z,67.33
2023-04-28T01:11:44.756Z,67.25
2023-04-28T01:14:12.694Z,67.30
2023-04-28T01:16:40.957Z,67.11
2023-04-28T01:19:09.775Z,67.25
2023-04-28T01:21:37.721Z,67.40
2023-04-28T01:24:09.168Z,67.59
2023-04-28T01:26:37.084Z,67.66
2023-04-28T01:29:04.973Z,67.94
2023-04-28T01:31:32.914Z,67.99
2023-04-28T01:34:00.832Z,67.79
2023-04-28T01:36:28.744Z,67.88
2023-04-28T01:38:56.792Z,68.05
2023-04-28T01:41:26.322Z,67.71
2023-04-28T01:43:54.202Z,67.74
2023-04-28T01:46:22.157Z,67.63
2023-04-28T01:48:50.106Z,68.05
2023-04-28T01:51:17.984Z,67.86
2023-04-28T01:53:46.000Z,67.89
2023-04-28T01:56:13.891Z,67.69
2023-04-28T01:58:43.227Z,67.71
2023-04-28T02:01:11.541Z,67.68
2023-04-28T02:03:39.592Z,67.69
2023-04-28T02:06:07.745Z,67.84
2023-04-28T02:08:35.663Z,67.68
2023-04-28T02:11:04.032Z,67.74
2023-04-28T02:13:31.946Z,67.74
2023-04-28T02:16:03.274Z,67.93
2023-04-28T02:18:31.434Z,67.81
2023-04-28T02:20:59.349Z,67.86
2023-04-28T02:23:27.241Z,67.61
2023-04-28T02:26:03.684Z,67.80
2023-04-28T02:28:31.636Z,67.83
2023-04-28T02:31:07.277Z,67.98
2023-04-28T02:33:35.287Z,68.01
2023-04-28T02:36:03.869Z,67.75
2023-04-28T02:38:32.214Z,68.08
2023-04-28T02:41:01.036Z,68.11
2023-04-28T02:43:29.266Z,67.97
2023-04-28T02:45:57.207Z,68.22
2023-04-28T02:48:26.977Z,67.81
2023-04-28T02:50:54.962Z,68.21
2023-04-28T02:53:23.564Z,68.23
2023-04-28T02:55:51.479Z,68.30
2023-04-28T02:58:19.447Z,68.24
2023-04-28T03:00:47.493Z,68.54
2023-04-28T03:03:15.677Z,68.09
2023-04-28T03:05:45.051Z,68.56
2023-04-28T03:08:12.985Z,68.24
2023-04-28T03:10:40.907Z,68.76
2023-04-28T03:13:08.781Z,68.50
2023-04-28T03:15:36.787Z,68.71
2023-04-28T03:18:04.831Z,68.59
2023-04-28T03:20:32.724Z,68.66
2023-04-28T03:23:02.720Z,68.47
2023-04-28T03:25:30.686Z,68.44
2023-04-28T03:27:58.590Z,68.26
2023-04-28T03:30:26.505Z,68.58
2023-04-28T03:32:54.552Z,68.64
2023-04-28T03:35:22.521Z,68.77
2023-04-28T03:37:50.528Z,68.49
2023-04-28T03:40:19.897Z,68.45
2023-04-28T03:42:47.935Z,68.81
2023-04-28T03:45:15.940Z,68.87
2023-04-28T03:47:43.908Z,69.13
2023-04-28T03:50:12.249Z,69.08
2023-04-28T03:52:40.164Z,69.19
2023-04-28T03:55:08.731Z,68.91
2023-04-28T03:57:38.037Z,69.30
2023-04-28T04:00:07.076Z,69.29
2023-04-28T04:02:35.079Z,68.85
2023-04-28T04:05:03.247Z,68.80
2023-04-28T04:07:31.384Z,68.96
2023-04-28T04:09:59.692Z,68.96
2023-04-28T04:12:28.055Z,68.62
2023-04-28T04:14:57.317Z,68.91
2023-04-28T04:17:25.332Z,68.51
2023-04-28T04:19:53.268Z,68.40
2023-04-28T04:22:21.168Z,68.61
2023-04-28T04:24:49.121Z,68.99
2023-04-28T04:27:17.012Z,69.62
2023-04-28T04:29:44.875Z,68.88
2023-04-28T04:32:14.254Z,69.06
2023-04-28T04:34:42.135Z,69.29
2023-04-28T04:37:10.511Z,69.05
2023-04-28T04:39:38.408Z,71.08
2023-04-28T04:42:22.642Z,69.99
2023-04-28T04:44:51.675Z,69.33
2023-04-28T04:47:20.940Z,70.19
2023-04-28T04:49:49.585Z,69.62
2023-04-28T04:52:17.579Z,69.32
2023-04-28T04:54:45.592Z,69.93
2023-04-28T04:57:13.590Z,70.83
2023-04-28T04:59:41.582Z,70.00
2023-04-28T05:02:09.855Z,69.71
2023-04-28T05:04:39.253Z,69.98
2023-04-28T05:07:07.397Z,69.02
2023-04-28T05:09:35.333Z,70.88
2023-04-28T05:12:03.314Z,68.89
2023-04-28T05:14:31.255Z,68.84
2023-04-28T05:16:59.391Z,68.70
2023-04-28T05:19:27.499Z,69.09
2023-04-28T05:21:57.030Z,68.05
2023-04-28T05:24:25.160Z,67.37
2023-04-28T05:26:54.172Z,67.11
2023-04-28T05:29:22.581Z,67.42
2023-04-28T05:31:50.528Z,71.11
2023-04-28T05:34:18.705Z,67.22
2023-04-28T05:36:46.981Z,67.35
2023-04-28T05:39:16.304Z,67.25
2023-04-28T05:41:44.243Z,68.89
2023-04-28T05:44:12.190Z,66.73
2023-04-28T05:46:40.233Z,66.62
2023-04-28T05:49:08.154Z,66.75
2023-04-28T05:51:36.033Z,68.29
2023-04-28T05:54:04.170Z,70.08
2023-04-28T05:56:33.495Z,66.93
2023-04-28T05:59:04.245Z,66.58
2023-04-28T06:01:32.272Z,66.34
2023-04-28T06:04:00.832Z,65.99
2023-04-28T06:06:29.334Z,65.42
2023-04-28T06:08:57.261Z,65.51
2023-04-28T06:11:25.283Z,66.05
2023-04-28T06:13:54.646Z,67.11
2023-04-28T06:16:23.554Z,65.00
2023-04-28T06:18:53.956Z,66.00
2023-04-28T06:21:22.306Z,66.35
2023-04-28T06:23:50.376Z,64.41
2023-04-28T06:26:18.667Z,65.39
2023-04-28T06:28:46.963Z,65.01
2023-04-28T06:31:16.935Z,64.56
2023-04-28T06:33:44.836Z,65.82
2023-04-28T06:36:14.054Z,64.40
2023-04-28T06:38:43.143Z,66.18
2023-04-28T06:41:11.421Z,64.74
2023-04-28T06:43:39.449Z,64.02
2023-04-28T06:46:07.516Z,64.01
2023-04-28T06:48:36.781Z,63.43
2023-04-28T06:51:05.749Z,63.54
2023-04-28T06:53:33.740Z,63.42
2023-04-28T06:56:02.833Z,63.60
2023-04-28T06:58:30.861Z,63.29
2023-04-28T07:00:58.876Z,62.85
2023-04-28T07:03:28.034Z,62.37
2023-04-28T07:05:57.491Z,62.66
2023-04-28T07:08:25.998Z,62.84
2023-04-28T07:10:53.905Z,61.92
2023-04-28T07:13:22.115Z,62.60
2023-04-28T07:15:50.103Z,62.10
2023-04-28T07:18:18.065Z,61.46
2023-04-28T07:20:49.161Z,61.73
2023-04-28T07:23:18.508Z,60.95
2023-04-28T07:25:46.543Z,60.96
2023-04-28T07:28:14.820Z,59.45
2023-04-28T07:30:42.727Z,60.22
2023-04-28T07:33:10.903Z,59.54
2023-04-28T07:35:38.847Z,59.66
2023-04-28T07:38:06.816Z,59.66
2023-04-28T07:40:36.276Z,59.52
2023-04-28T07:43:04.551Z,53.76
2023-04-28T07:45:33.013Z,58.84
2023-04-28T07:48:01.301Z,58.21
2023-04-28T07:50:29.312Z,56.92
2023-04-28T07:52:59.977Z,55.40
2023-04-28T07:55:28.035Z,57.92
2023-04-28T07:57:58.802Z,55.72
2023-04-28T08:00:26.885Z,56.71
2023-04-28T08:02:54.977Z,53.39
2023-04-28T08:05:23.193Z,55.93
2023-04-28T08:07:51.208Z,54.32
2023-04-28T08:10:19.211Z,50.14
2023-04-28T08:12:47.438Z,55.35
2023-04-28T08:15:18.455Z,55.64
2023-04-28T08:17:46.577Z,55.32
2023-04-28T08:20:15.626Z,54.65
2023-04-28T08:22:43.543Z,54.23
2023-04-28T08:25:11.917Z,54.84
2023-04-28T08:27:40.485Z,55.28
2023-04-28T08:30:10.085Z,55.03
2023-04-28T08:32:39.444Z,54.59
2023-04-28T08:35:08.644Z,51.93
2023-04-28T08:37:36.952Z,51.35
2023-04-28T08:40:09.709Z,53.66
2023-04-28T08:42:59.575Z,53.90
2023-04-28T08:45:49.484Z,53.45
2023-04-28T08:48:37.634Z,53.14
2023-04-28T08:51:11.193Z,53.73
2023-04-28T08:54:08.790Z,53.74
2023-04-28T08:56:47.810Z,53.39
2023-04-28T08:59:16.121Z,52.11
2023-04-28T09:01:44.106Z,53.81
2023-04-28T09:04:14.324Z,53.39
2023-04-28T09:06:42.791Z,47.91
2023-04-28T09:09:21.180Z,52.07
2023-04-28T09:11:53.012Z,52.55
2023-04-28T09:14:20.903Z,52.41
2023-04-28T09:16:48.871Z,47.99
2023-04-28T09:19:18.268Z,51.41
2023-04-28T09:21:54.614Z,51.61
2023-04-28T09:24:30.499Z,51.60
2023-04-28T09:26:58.723Z,51.52
2023-04-28T09:29:26.982Z,50.15
2023-04-28T09:31:55.285Z,50.36
2023-04-28T09:34:24.768Z,50.50
2023-04-28T09:36:52.960Z,50.56
2023-04-28T09:39:31.714Z,50.37
2023-04-28T09:42:03.471Z,49.94
2023-04-28T09:44:31.482Z,49.97
2023-04-28T09:46:59.441Z,50.22
2023-04-28T09:49:28.755Z,49.70
2023-04-28T09:52:13.588Z,49.66
2023-04-28T09:54:41.921Z,48.66
2023-04-28T09:57:10.303Z,44.13
2023-04-28T09:59:38.555Z,44.32
2023-04-28T10:02:22.646Z,48.41
2023-04-28T10:04:56.403Z,45.14
2023-04-28T10:07:24.411Z,47.27
2023-04-28T10:09:52.452Z,49.20
2023-04-28T10:12:21.848Z,46.18
2023-04-28T10:14:54.337Z,47.24
2023-04-28T10:17:25.477Z,48.51
2023-04-28T10:19:56.464Z,48.51
2023-04-28T10:22:34.695Z,48.93
2023-04-28T10:25:19.071Z,43.25
2023-04-28T10:27:47.751Z,48.58
2023-04-28T10:32:48.406Z,48.65
2023-04-28T10:35:50.906Z,48.98
2023-04-28T10:38:21.494Z,48.57
2023-04-28T10:40:50.085Z,47.90
2023-04-28T10:43:39.921Z,48.14
2023-04-28T10:46:09.250Z,46.59
2023-04-28T10:49:07.163Z,46.82
2023-04-28T10:51:37.677Z,48.18
2023-04-28T10:54:20.446Z,48.06
2023-04-28T10:57:17.139Z,48.21
2023-04-28T10:59:45.065Z,48.67
2023-04-28T11:02:44.741Z,48.14
2023-04-28T11:05:19.090Z,47.83
2023-04-28T11:08:33.374Z,47.42
2023-04-28T11:11:22.821Z,47.36
2023-04-28T11:13:51.720Z,46.83
2023-04-28T11:16:25.035Z,46.55
2023-04-28T11:18:59.244Z,47.31
2023-04-28T11:21:28.440Z,46.84
2023-04-28T11:23:56.714Z,46.13
2023-04-28T11:26:26.388Z,43.05
2023-04-28T11:28:56.040Z,46.41
2023-04-28T11:31:25.997Z,46.78
2023-04-28T11:34:06.263Z,46.79
2023-04-28T11:36:36.700Z,46.25
2023-04-28T11:39:09.143Z,46.98
2023-04-28T11:41:39.974Z,47.16
2023-04-28T11:44:12.063Z,46.79
2023-04-28T11:46:46.829Z,46.77
2023-04-28T11:49:15.757Z,47.04
2023-04-28T11:51:45.978Z,47.34
2023-04-28T11:54:15.154Z,46.78
2023-04-28T11:56:45.054Z,47.23
2023-04-28T11:59:14.192Z,46.59
2023-04-28T12:01:49.698Z,47.27
2023-04-28T12:04:29.062Z,47.10
2023-04-28T12:07:01.246Z,47.19
2023-04-28T12:09:29.237Z,46.64
2023-04-28T12:11:59.758Z,46.73
2023-04-28T12:14:27.735Z,48.06
2023-04-28T12:16:57.082Z,47.50
2023-04-28T12:19:24.957Z,46.88
2023-04-28T12:22:06.570Z,47.07
2023-04-28T12:24:35.897Z,47.49
2023-04-28T12:27:20.341Z,46.76
2023-04-28T12:29:48.818Z,47.39
2023-04-28T12:32:18.647Z,47.40
2023-04-28T12:34:47.618Z,47.65
2023-04-28T12:37:15.578Z,47.79
2023-04-28T12:39:44.255Z,47.93
2023-04-28T12:42:12.336Z,47.81
2023-04-28T12:44:41.620Z,47.96
2023-04-28T12:47:11.090Z,48.17
2023-04-28T12:49:39.386Z,48.31
2023-04-28T12:52:07.922Z,48.15
2023-04-28T12:54:35.850Z,48.49
2023-04-28T12:57:04.196Z,48.73
2023-04-28T12:59:32.755Z,49.01
2023-04-28T13:02:02.660Z,49.18
2023-04-28T13:04:31.335Z,49.78
2023-04-28T13:07:00.026Z,48.67
2023-04-28T13:09:28.372Z,48.44
2023-04-28T13:11:56.318Z,48.54
2023-04-28T13:14:24.254Z,48.63
2023-04-28T13:16:53.438Z,48.31
2023-04-28T13:19:23.138Z,48.53
2023-04-28T13:21:51.255Z,48.49
2023-04-28T13:24:19.206Z,48.55
2023-04-28T13:26:47.351Z,48.59
2023-04-28T13:29:15.491Z,48.39
2023-04-28T13:31:43.535Z,49.03
2023-04-28T13:34:16.080Z,48.58
2023-04-28T13:36:45.716Z,49.00
2023-04-28T13:39:14.838Z,49.19
2023-04-28T13:41:42.957Z,49.18
2023-04-28T13:44:11.010Z,48.94
2023-04-28T13:46:38.986Z,49.52
2023-04-28T13:49:07.357Z,49.77
2023-04-28T13:51:35.356Z,50.17
2023-04-28T13:54:08.188Z,50.52
2023-04-28T13:56:36.877Z,51.26
2023-04-28T13:59:05.054Z,50.84
2023-04-28T14:01:33.042Z,50.72
2023-04-28T14:04:01.293Z,50.96
2023-04-28T14:06:29.432Z,50.91
2023-04-28T14:08:57.673Z,50.95
2023-04-28T14:11:27.224Z,51.04
2023-04-28T14:13:55.191Z,51.49
2023-04-28T14:16:23.246Z,51.28
2023-04-28T14:18:51.860Z,51.58
2023-04-28T14:21:19.780Z,51.55
2023-04-28T14:23:47.719Z,51.49
2023-04-28T14:26:15.674Z,52.69
2023-04-28T14:28:45.218Z,52.39
2023-04-28T14:31:13.282Z,52.26
2023-04-28T14:33:41.654Z,51.99
2023-04-28T14:36:10.290Z,51.96
2023-04-28T14:38:40.030Z,52.35
2023-04-28T14:41:08.247Z,52.97
2023-04-28T14:43:36.374Z,53.16
2023-04-28T14:46:06.164Z,53.39
2023-04-28T14:48:34.255Z,53.62
2023-04-28T14:51:02.806Z,57.24
2023-04-28T14:53:31.966Z,54.09
2023-04-28T14:56:16.767Z,55.85
2023-04-28T14:58:46.319Z,54.20
2023-04-28T15:01:16.052Z,54.68
2023-04-28T15:03:44.894Z,58.39
2023-04-28T15:06:13.283Z,55.25
2023-04-28T15:08:48.276Z,57.35
2023-04-28T15:11:16.362Z,56.66
2023-04-28T15:13:44.308Z,55.25
2023-04-28T15:16:12.296Z,54.69
2023-04-28T15:18:41.654Z,55.41
2023-04-28T15:21:09.652Z,55.34
2023-04-28T15:23:37.607Z,55.54
2023-04-28T15:26:08.580Z,54.59
2023-04-28T15:28:37.141Z,54.71
2023-04-28T15:31:05.399Z,54.98
2023-04-28T15:33:33.675Z,54.59
2023-04-28T15:36:03.658Z,55.84
2023-04-28T15:38:32.037Z,56.02
2023-04-28T15:40:59.930Z,55.31
2023-04-28T15:43:28.237Z,55.52
2023-04-28T15:45:56.236Z,56.27
2023-04-28T15:48:24.299Z,58.96
2023-04-28T15:50:52.212Z,64.45
2023-04-28T15:53:22.481Z,62.23
2023-04-28T15:55:50.786Z,59.72
2023-04-28T15:58:18.701Z,57.79
2023-04-28T16:00:47.079Z,57.22
2023-04-28T16:03:15.130Z,57.78
2023-04-28T16:05:43.197Z,57.87
2023-04-28T16:08:11.135Z,58.47
2023-04-28T16:10:42.380Z,58.32
2023-04-28T16:13:12.325Z,58.79
2023-04-28T16:15:41.800Z,58.98
2023-04-28T16:18:10.163Z,58.95
2023-04-28T16:20:38.291Z,59.42
2023-04-28T16:23:06.906Z,59.31
2023-04-28T16:25:35.381Z,59.18
2023-04-28T16:28:04.778Z,59.34
2023-04-28T16:30:33.630Z,59.10
2023-04-28T16:33:01.559Z,59.08
2023-04-28T16:35:29.985Z,59.15
2023-04-28T16:37:58.042Z,58.84
2023-04-28T16:40:28.891Z,66.79
2023-04-28T16:42:57.522Z,67.05
2023-04-28T16:45:26.891Z,61.55
2023-04-28T16:47:54.793Z,60.08
2023-04-28T16:50:22.713Z,59.48
2023-04-28T16:52:50.584Z,59.85
2023-04-28T16:55:18.886Z,59.41
2023-04-28T16:57:47.121Z,59.19
2023-04-28T17:00:16.037Z,59.25
2023-04-28T17:02:45.572Z,60.08
2023-04-28T17:05:13.949Z,59.44
2023-04-28T17:07:41.961Z,61.83
2023-04-28T17:10:11.065Z,65.85
2023-04-28T17:12:39.505Z,63.35
2023-04-28T17:15:09.496Z,70.77
2023-04-28T17:17:37.483Z,69.55
2023-04-28T17:20:08.177Z,71.01
2023-04-28T17:22:36.445Z,62.01
2023-04-28T17:25:05.148Z,61.17
2023-04-28T17:27:33.077Z,62.68
2023-04-28T17:30:00.983Z,63.78
2023-04-28T17:32:30.952Z,67.12
2023-04-28T17:34:59.016Z,62.54
2023-04-28T17:37:28.438Z,61.65
2023-04-28T17:39:56.947Z,61.27
2023-04-28T17:42:24.883Z,61.09
2023-04-28T17:44:53.326Z,60.77
2023-04-28T17:47:21.363Z,68.02
2023-04-28T17:49:49.253Z,70.88
2023-04-28T17:52:17.154Z,64.80
2023-04-28T17:54:46.429Z,62.83
2023-04-28T17:57:14.522Z,68.56
2023-04-28T17:59:42.691Z,71.93
2023-04-28T18:02:11.282Z,63.26
2023-04-28T18:04:39.433Z,62.48
2023-04-28T18:07:07.972Z,65.57
2023-04-28T18:09:35.969Z,62.10
2023-04-28T18:12:05.642Z,61.91
2023-04-28T18:14:33.666Z,61.77
2023-04-28T18:17:01.568Z,61.62
2023-04-28T18:19:30.941Z,61.80
2023-04-28T18:21:58.965Z,61.64
2023-04-28T18:24:26.856Z,62.10
2023-04-28T18:26:54.764Z,62.36
2023-04-28T18:29:24.033Z,63.27
2023-04-28T18:31:52.130Z,64.40
2023-04-28T18:34:20.100Z,63.17
2023-04-28T18:36:48.018Z,63.39
2023-04-28T18:39:15.911Z,62.96
2023-04-28T18:41:43.854Z,63.26
2023-04-28T18:44:11.746Z,63.69
2023-04-28T18:46:41.293Z,65.27
2023-04-28T18:49:09.702Z,64.36
2023-04-28T18:51:38.658Z,65.64
2023-04-28T18:54:07.217Z,73.46
2023-04-28T18:56:35.167Z,64.32
2023-04-28T18:59:04.231Z,68.78
2023-04-28T19:01:32.317Z,72.65
2023-04-28T19:04:24.737Z,67.55
2023-04-28T19:06:52.893Z,65.31
2023-04-28T19:09:21.290Z,67.12
2023-04-28T19:11:49.243Z,77.48
2023-04-28T19:14:17.819Z,77.73
2023-04-28T19:16:45.766Z,77.25
2023-04-28T19:19:15.106Z,73.57
2023-04-28T19:21:44.600Z,71.24
2023-04-28T19:24:12.762Z,67.25
2023-04-28T19:26:41.285Z,66.08
2023-04-28T19:29:09.206Z,65.47
2023-04-28T19:31:37.113Z,65.22
2023-04-28T19:34:05.065Z,64.73
2023-04-28T19:36:34.506Z,64.45
2023-04-28T19:39:02.416Z,64.53
2023-04-28T19:41:30.651Z,64.12
2023-04-28T19:43:58.553Z,65.28
2023-04-28T19:46:26.466Z,66.48
2023-04-28T19:48:54.383Z,65.22
2023-04-28T19:51:22.250Z,71.82
2023-04-28T19:53:52.473Z,70.82
2023-04-28T19:56:20.422Z,66.55
2023-04-28T19:58:48.709Z,67.02
2023-04-28T20:01:16.695Z,66.15
2023-04-28T20:03:45.021Z,66.36
2023-04-28T20:06:17.548Z,65.26
2023-04-28T20:08:45.807Z,70.60
2023-04-28T20:11:15.187Z,66.09
2023-04-28T20:13:43.125Z,65.33
2023-04-28T20:16:11.045Z,65.37
2023-04-28T20:18:38.959Z,67.05
2023-04-28T20:21:06.946Z,71.21
2023-04-28T20:23:34.977Z,71.48
2023-04-28T20:26:03.506Z,70.03
2023-04-28T20:28:32.783Z,69.22
2023-04-28T20:31:00.837Z,67.55
2023-04-28T20:33:28.804Z,66.34
2023-04-28T20:35:56.696Z,73.65
2023-04-28T20:38:24.584Z,66.30
2023-04-28T20:40:52.541Z,66.24
2023-04-28T20:43:20.939Z,66.17
2023-04-28T20:45:50.215Z,68.00
2023-04-28T20:48:19.494Z,67.53
2023-04-28T20:50:48.751Z,71.35
2023-04-28T20:53:16.640Z,67.77
2023-04-28T20:55:44.558Z,69.57
2023-04-28T20:58:12.542Z,67.61
2023-04-28T21:00:41.125Z,68.83
2023-04-28T21:03:15.580Z,68.18
2023-04-28T21:05:44.930Z,70.91
2023-04-28T21:08:12.893Z,67.35
2023-04-28T21:10:40.832Z,67.91
2023-04-28T21:13:09.666Z,69.70
2023-04-28T21:15:37.924Z,68.23
2023-04-28T21:18:05.929Z,67.95
2023-04-28T21:20:35.746Z,69.58
2023-04-28T21:23:04.254Z,68.00
2023-04-28T21:25:32.195Z,70.28
2023-04-28T21:28:01.676Z,70.45
2023-04-28T21:30:30.019Z,69.74
2023-04-28T21:32:57.975Z,70.05
2023-04-28T21:35:25.908Z,74.02
2023-04-28T21:37:55.205Z,69.93
2023-04-28T21:40:23.195Z,68.90
2023-04-28T21:42:51.065Z,73.35
2023-04-28T21:45:19.117Z,70.87
2023-04-28T21:47:47.293Z,70.26
2023-04-28T21:50:15.265Z,71.94
2023-04-28T21:52:43.223Z,69.98
2023-04-28T21:55:12.649Z,69.82
2023-04-28T21:57:40.571Z,69.47
2023-04-28T22:00:12.637Z,70.05
2023-04-28T22:02:41.312Z,72.37
2023-04-28T22:05:10.550Z,70.80
2023-04-28T22:07:38.743Z,69.70
2023-04-28T22:10:08.120Z,70.00
2023-04-28T22:12:37.445Z,70.34
2023-04-28T22:15:06.102Z,70.72
2023-04-28T22:17:34.090Z,70.05
2023-04-28T22:20:02.051Z,70.79
2023-04-28T22:22:31.029Z,70.71
2023-04-28T22:24:59.346Z,70.17
2023-04-28T22:27:27.521Z,69.60
2023-04-28T22:29:58.631Z,69.71
2023-04-28T22:32:26.887Z,69.31
2023-04-28T22:34:55.243Z,69.25
2023-04-28T22:37:23.159Z,70.44
2023-04-28T22:39:51.456Z,69.83
2023-04-28T22:42:19.645Z,72.86
2023-04-28T22:44:47.565Z,72.69
2023-04-28T22:47:17.220Z,75.08
2023-04-28T22:49:45.132Z,70.13
2023-04-28T22:52:13.024Z,69.95
2023-04-28T22:54:40.924Z,71.71
2023-04-28T22:57:09.081Z,70.70
2023-04-28T22:59:37.163Z,69.68
2023-04-28T23:02:05.110Z,71.24
2023-04-28T23:04:34.724Z,69.74
2023-04-28T23:07:02.745Z,70.08
2023-04-28T23:09:33.749Z,70.37
2023-04-28T23:12:03.021Z,69.95
2023-04-28T23:14:31.064Z,69.44
2023-04-28T23:16:59.252Z,69.34
2023-04-28T23:19:27.222Z,70.92
2023-04-28T23:21:56.690Z,70.81
2023-04-28T23:24:24.585Z,70.40
2023-04-28T23:26:52.506Z,70.22
2023-04-28T23:29:20.400Z,71.81
2023-04-28T23:31:52.649Z,71.22
2023-04-28T23:34:21.445Z,70.18
2023-04-28T23:36:49.364Z,72.96
2023-04-28T23:39:19.240Z,70.66
2023-04-28T23:41:47.145Z,70.92
2023-04-28T23:44:15.295Z,70.59
2023-04-28T23:46:43.182Z,70.13
2023-04-28T23:49:11.463Z,70.40
2023-04-28T23:51:41.013Z,72.19
2023-04-28T23:54:09.306Z,71.19
2023-04-28T23:56:38.687Z,72.53
2023-04-28T23:59:39.738Z,70.70
